Latest Weather Observations for Cunderdin Airport

IDW60801

Issued at 8:32 pm WST Saturday 13 February 2016 (issued every 30 minutes, with the page automatically refreshed every 10 minutes)

About weather observations | Map of weather stations | Latest weather observations for WA | Other Formats
Station Details ID: 010286 Name: CUNDERDIN AIRFIELD Lat: -31.62 Lon: 117.22 Height: 216.7 m
Data from the previous 72 hours. | See also: Recent months at Cunderdin Airport
Date/Time
WST
Temp
°C
App
Temp
°C
Dew
Point
Rel
Hum
%
Delta-T
°C
Wind Press
QNH
hPa
Press
MSL
hPa
Rain
since 9 am
mm
Dir
 
Spd
km/h
Gust
km/h
Spd
kts
Gust
kts
13/08:30pm 24.5 19.6 6.7 32 9.3 SE 22 32 12 17 1019.8 1018.6 0.0
13/08:00pm 25.2 20.1 5.9 29 10.0 SE 22 30 12 16 1019.6 1018.4 0.0
13/07:30pm 25.9 20.7 3.8 24 11.1 SE 20 28 11 15 1019.1 1018.0 0.0
13/07:00pm 26.7 21.2 3.9 23 11.5 SE 22 35 12 19 1018.8 1017.6 0.0
13/06:30pm 27.6 20.8 3.3 21 12.2 SE 28 41 15 22 1018.4 1017.2 0.0
13/06:00pm 28.4 21.6 3.3 20 12.7 SE 28 37 15 20 1018.2 1017.0 0.0
13/05:30pm 28.9 21.8 3.7 20 12.9 SSE 30 37 16 20 1017.9 1016.7 0.0
13/05:00pm 29.2 22.0 3.2 19 13.2 SSE 30 41 16 22 1017.8 1016.6 0.0
13/04:30pm 29.3 22.0 4.7 21 12.8 SSE 32 46 17 25 1017.7 1016.5 0.0
13/04:00pm 29.7 23.3 5.1 21 12.9 SSE 28 41 15 22 1017.8 1016.6 0.0
13/03:30pm 30.2 23.6 6.1 22 12.9 SSE 30 43 16 23 1018.0 1016.8 0.0
13/03:00pm 29.7 23.6 6.4 23 12.5 SSE 28 39 15 21 1018.2 1017.0 0.0
13/02:30pm 29.6 23.2 6.9 24 12.3 SSE 30 41 16 22 1018.4 1017.2 0.0
13/02:00pm 29.8 23.7 8.2 26 11.9 SSE 30 46 16 25 1018.7 1017.5 0.0
13/01:30pm 29.0 23.2 8.1 27 11.5 SSE 28 37 15 20 1019.1 1018.0 0.0
13/01:00pm 29.5 24.6 10.1 30 11.0 SE 26 39 14 21 1019.5 1018.3 0.0
13/12:30pm 28.2 23.6 10.9 34 9.9 SSE 26 39 14 21 1019.9 1018.7 0.0
13/12:00pm 27.5 23.2 10.7 35 9.6 SE 24 41 13 22 1020.3 1019.1 0.0
13/11:30am 28.6 24.8 12.5 37 9.5 SE 24 37 13 20 1020.4 1019.2 0.0
13/11:00am 26.2 21.9 11.9 41 8.2 SE 26 41 14 22 1020.7 1019.5 0.0
13/10:30am 25.6 21.9 12.8 45 7.5 SE 24 35 13 19 1021.0 1019.8 0.0
13/10:00am 24.2 19.9 13.1 50 6.5 SE 28 41 15 22 1021.3 1020.1 0.0
13/09:30am 23.3 19.8 13.5 54 5.7 ESE 24 33 13 18 1021.6 1020.4 0.0
13/09:00am 22.1 18.3 13.7 59 4.9 SE 26 35 14 19 1021.8 1020.6 0.0
13/08:30am 21.6 17.9 14.0 62 4.5 SE 26 35 14 19 1021.8 1020.6 0.0
13/08:00am 20.9 17.3 14.3 66 3.9 SSE 26 37 14 20 1021.9 1020.7 0.0
13/07:30am 20.9 17.7 14.3 66 3.9 SE 24 35 13 19 1021.7 1020.5 0.0
13/07:00am 20.7 17.7 14.8 69 3.5 SE 24 33 13 18 1021.4 1020.2 0.0
13/06:30am 20.5 17.4 14.6 69 3.5 SE 24 33 13 18 1021.2 1020.0 0.0
13/06:00am 20.4 17.3 14.5 69 3.5 SE 24 35 13 19 1020.9 1019.7 0.0
13/05:30am 20.6 17.9 14.7 69 3.5 ESE 22 33 12 18 1020.4 1019.2 0.0
13/05:00am 20.6 18.0 14.9 70 3.4 ESE 22 37 12 20 1020.0 1018.8 0.0
13/04:30am 20.5 17.9 14.8 70 3.4 ESE 22 30 12 16 1019.9 1018.7 0.0
13/04:00am 20.2 18.1 14.8 71 3.2 ESE 19 28 10 15 1019.6 1018.4 0.0
13/03:30am 20.0 17.3 14.6 71 3.2 SE 22 32 12 17 1019.6 1018.4 0.0
13/03:00am 20.1 17.4 14.7 71 3.2 ESE 22 33 12 18 1019.5 1018.3 0.0
13/02:30am 20.3 17.2 14.4 69 3.5 ESE 24 35 13 19 1019.3 1018.1 0.0
13/02:00am 20.6 16.6 14.0 66 3.8 SE 28 44 15 24 1018.9 1017.8 0.0
13/01:30am 21.4 18.0 13.6 61 4.5 SE 24 35 13 19 1018.6 1017.4 0.0
13/01:00am 22.2 18.1 13.8 59 4.9 SE 28 39 15 21 1018.2 1017.0 0.0
13/12:30am 23.2 19.8 13.7 55 5.6 SE 24 35 13 19 1018.0 1016.8 0.0
13/12:00am 24.0 21.5 13.5 52 6.2 ESE 19 35 10 19 1017.9 1016.7 0.0
 
Date/Time
WST
Temp
°C
App
Temp
°C
Dew
Point
Rel
Hum
%
Delta-T
°C
Wind Press
QNH
hPa
Press
MSL
hPa
Rain
since 9 am
mm
Dir
 
Spd
km/h
Gust
km/h
Spd
kts
Gust
kts
12/11:30pm 25.2 22.5 13.4 48 7.0 SE 20 39 11 21 1017.7 1016.5 0.0
12/11:00pm 26.2 23.3 14.0 47 7.3 SE 22 33 12 18 1017.5 1016.3 0.0
12/10:30pm 27.4 23.2 13.4 42 8.3 SE 28 41 15 22 1017.3 1016.1 0.0
12/10:00pm 28.4 23.8 11.0 34 10.0 SSE 26 37 14 20 1016.9 1015.7 0.0
12/09:30pm 29.2 23.9 11.3 33 10.4 S 30 39 16 21 1016.5 1015.3 0.0
12/09:00pm 29.7 25.5 11.2 31 10.7 S 24 32 13 17 1016.2 1015.0 0.0
12/08:30pm 30.5 26.2 11.9 31 11.0 SSE 26 35 14 19 1015.8 1014.6 0.0
12/08:00pm 31.3 27.3 11.7 30 11.5 SSE 24 35 13 19 1015.3 1014.1 0.0
12/07:30pm 32.2 28.3 10.8 27 12.5 SSE 22 30 12 16 1014.9 1013.7 0.0
12/07:00pm 33.5 28.7 10.2 24 13.5 S 26 33 14 18 1014.5 1013.2 0.0
12/06:30pm 34.9 30.0 8.6 20 15.0 SSE 24 32 13 17 1013.9 1012.7 0.0
12/06:00pm 36.0 32.5 8.7 19 15.7 S 17 24 9 13 1013.6 1012.4 0.0
12/05:30pm 36.6 33.0 8.4 18 16.2 S 17 32 9 17 1013.4 1012.2 0.0
12/05:00pm 37.2 33.2 8.1 17 16.7 S 19 28 10 15 1013.3 1012.1 0.0
12/04:30pm 37.1 34.0 7.1 16 16.9 SSE 13 24 7 13 1013.3 1012.1 0.0
12/04:00pm 37.9 33.2 7.7 16 17.2 S 22 33 12 18 1013.3 1012.1 0.0
12/03:30pm 37.8 33.7 7.7 16 17.2 SSW 19 33 10 18 1013.4 1012.2 0.0
12/03:00pm 37.8 33.4 6.7 15 17.5 SW 19 32 10 17 1013.7 1012.5 0.0
12/02:30pm 38.1 33.6 7.0 15 17.6 SSW 20 32 11 17 1013.9 1012.7 0.0
12/02:00pm 38.3 35.0 8.1 16 17.4 SSW 15 30 8 16 1014.2 1013.0 0.0
12/01:30pm 36.8 33.1 7.8 17 16.5 SSW 17 28 9 15 1014.6 1013.3 0.0
12/01:00pm 36.9 32.8 7.8 17 16.6 SSW 19 30 10 16 1014.9 1013.7 0.0
12/12:30pm 36.6 33.0 8.4 18 16.2 SSE 17 26 9 14 1015.3 1014.1 0.0
12/12:00pm 34.3 29.5 8.8 21 14.5 S 24 33 13 18 1015.7 1014.5 0.0
12/11:30am 34.6 30.6 10.4 23 14.2 SSW 22 30 12 16 1016.1 1014.9 0.0
12/11:00am 33.6 29.9 10.2 24 13.6 S 20 30 11 16 1016.4 1015.2 0.0
12/10:30am 32.4 29.4 12.1 29 12.1 S 19 32 10 17 1016.8 1015.6 0.0
12/10:00am 30.7 28.7 13.9 36 10.2 SSE 17 24 9 13 1017.2 1016.0 0.0
12/09:30am 28.9 27.1 15.4 44 8.3 SSE 19 26 10 14 1017.2 1016.0 0.0
12/09:00am 28.0 25.8 16.0 48 7.5 S 22 30 12 16 1017.3 1016.1 0.0
12/08:30am 26.7 24.8 15.7 51 6.8 SSE 20 26 11 14 1017.2 1016.0 0.0
12/08:00am 25.7 25.5 17.6 61 5.1 SSE 15 20 8 11 1017.2 1016.0 0.0
12/07:30am 24.5 23.5 17.5 65 4.4 SSE 19 26 10 14 1017.3 1016.1 0.0
12/07:00am 23.9 25.1 17.4 67 4.1 SSE 7 15 4 8 1016.9 1015.7 0.0
12/06:30am 22.8 23.1 15.9 65 4.2 E 9 11 5 6 1016.6 1015.4 0.0
12/06:00am 21.2 21.6 15.3 69 3.5 E 7 9 4 5 1016.2 1015.0 0.0
12/05:30am 22.6 23.4 16.4 68 3.8 ESE 7 9 4 5 1015.8 1014.6 0.0
12/05:00am 23.1 22.4 15.4 62 4.7 SSE 13 20 7 11 1015.4 1014.2 0.0
12/04:30am 22.6 21.4 12.8 54 5.7 S 11 15 6 8 1015.0 1013.8 0.0
12/04:00am 20.1 19.7 9.9 52 5.5 S 2 9 1 5 1014.6 1013.3 0.0
12/03:30am 19.9 18.3 8.9 49 5.8 NNW 7 9 4 5 1013.9 1012.7 0.0
12/03:00am 21.0 19.0 8.6 45 6.6 WSW 9 11 5 6 1013.5 1012.3 0.0
12/02:30am 21.6 19.4 7.8 41 7.3 W 9 11 5 6 1013.7 1012.5 0.0
12/02:00am 21.0 17.8 6.9 40 7.3 W 13 15 7 8 1013.1 1011.9 0.0
12/01:30am 22.0 18.8 7.0 38 7.8 W 13 15 7 8 1013.4 1012.2 0.0
12/01:00am 22.9 19.4 7.4 37 8.1 W 15 17 8 9 1013.7 1012.5 0.0
12/12:30am 23.0 20.0 7.9 38 8.0 WSW 13 15 7 8 1014.0 1012.8 0.0
12/12:00am 24.5 23.2 7.6 34 9.0 WSW 4 9 2 5 1014.0 1012.8 0.0
 
Date/Time
WST
Temp
°C
App
Temp
°C
Dew
Point
Rel
Hum
%
Delta-T
°C
Wind Press
QNH
hPa
Press
MSL
hPa
Rain
since 9 am
mm
Dir
 
Spd
km/h
Gust
km/h
Spd
kts
Gust
kts
11/11:30pm 24.4 21.9 8.0 35 8.8 W 11 13 6 7 1013.5 1012.3 0.0
11/11:00pm 25.9 23.4 8.4 33 9.5 WNW 11 11 6 6 1013.5 1012.3 0.0
11/10:30pm 27.6 24.3 8.0 29 10.7 W 15 19 8 10 1013.7 1012.5 0.0
11/10:00pm 28.5 25.7 8.7 29 11.0 WSW 13 17 7 9 1013.6 1012.4 0.0
11/09:30pm 30.3 26.8 8.7 26 12.1 W 17 20 9 11 1013.3 1012.1 0.0
11/09:00pm 31.2 28.1 8.8 25 12.6 WSW 15 20 8 11 1012.9 1011.7 0.0
11/08:30pm 32.1 28.7 9.0 24 13.1 W 17 19 9 10 1012.5 1011.3 0.0
11/08:00pm 33.3 30.5 8.7 22 14.0 WSW 13 17 7 9 1012.1 1010.9 0.0
11/07:30pm 35.3 31.3 8.2 19 15.4 W 19 24 10 13 1011.6 1010.4 0.0
11/07:00pm 37.6 33.2 7.5 16 17.1 WSW 20 26 11 14 1011.2 1010.0 0.0
11/06:30pm 39.2 32.9 5.7 13 18.7 W 28 35 15 19 1010.7 1009.4 0.0
11/06:00pm 40.6 33.2 6.8 13 19.3 WSW 35 44 19 24 1010.3 1009.0 0.0
11/05:30pm 42.0 34.3 5.5 11 20.5 WSW 35 46 19 25 1009.9 1008.6 0.0
11/05:00pm 43.1 37.2 7.6 12 20.7 WSW 28 48 15 26 1009.7 1008.4 0.0
11/04:56pm 43.6 39.0 6.7 11 21.3 WSW 20 43 11 23 1009.6 1008.3 0.0
11/04:30pm 44.1 39.1 -1.5 6 23.5 NW 15 24 8 13 1009.4 1008.2 0.0
11/04:00pm 45.6 39.0 -0.4 6 24.3 WNW 24 37 13 20 1009.4 1008.2 0.0
11/03:30pm 44.9 38.2 -0.9 6 23.9 NW 24 37 13 20 1009.8 1008.5 0.0
11/03:00pm 44.5 37.8 -1.2 6 23.7 NW 24 39 13 21 1010.3 1009.0 0.0
11/02:30pm 44.5 40.2 0.9 7 23.3 W 13 28 7 15 1010.4 1009.1 0.0
11/02:00pm 45.2 38.2 -0.7 6 24.1 WNW 26 43 14 23 1010.9 1009.7 0.0
11/01:30pm 43.6 37.5 0.3 7 22.8 NNW 22 46 12 25 1011.2 1010.0 0.0
11/01:25pm 44.6 37.8 1.0 7 23.3 NNW 26 46 14 25 1011.3 1010.1 0.0
11/01:00pm 44.7 39.1 1.1 7 23.4 NW 20 37 11 20 1011.6 1010.4 0.0
11/12:30pm 43.5 36.6 0.2 7 22.8 NNW 26 52 14 28 1011.9 1010.7 0.0
11/12:12pm 43.3 36.3 1.9 8 22.3 NNW 28 46 15 25 1012.2 1011.0 0.0
11/12:11pm 43.5 36.1 2.1 8 22.4 NNW 30 46 16 25 1012.1 1010.9 0.0
11/12:00pm 43.2 37.0 1.9 8 22.2 NNW 24 43 13 23 1012.3 1011.1 0.0
11/11:30am 42.3 34.8 1.2 8 21.8 NNW 30 44 16 24 1012.8 1011.6 0.0
11/11:06am 41.9 35.0 2.6 9 21.2 N 28 46 15 25 1013.3 1012.1 0.0
11/11:00am 41.5 35.3 2.3 9 21.0 N 24 35 13 19 1013.4 1012.2 0.0
11/10:30am 40.2 34.1 2.8 10 20.1 N 24 37 13 20 1013.8 1012.6 0.0
11/10:00am 39.2 33.6 3.4 11 19.3 NNW 22 32 12 17 1014.1 1012.9 0.0
11/09:30am 38.8 31.6 3.1 11 19.1 N 30 41 16 22 1014.1 1012.9 0.0
11/09:00am 37.8 31.5 3.5 12 18.4 N 26 35 14 19 1014.1 1012.9 0.0
11/08:41am 37.6 34.7 6.6 15 17.4 NNE 11 32 6 17 1014.1 1012.9 0.0
11/08:30am 32.0 33.8 15.5 37 10.3 CALM 0 0 0 0 1014.3 1013.1 0.0
11/08:00am 27.9 27.9 16.2 49 7.3 ENE 11 15 6 8 1014.3 1013.1 0.0
11/07:30am 24.7 25.5 17.2 63 4.7 E 9 13 5 7 1014.6 1013.3 0.0
11/07:00am 23.2 23.5 17.0 68 3.8 ESE 11 15 6 8 1014.2 1013.0 0.0
11/06:30am 21.0 21.5 16.6 76 2.7 ENE 9 13 5 7 1014.5 1013.2 0.0
11/06:00am 19.2 19.4 15.7 80 2.1 ENE 9 11 5 6 1014.1 1012.9 0.0
11/05:30am 20.1 20.9 16.3 79 2.3 E 7 11 4 6 1013.7 1012.5 0.0
11/05:00am 19.5 21.0 15.6 78 2.3 E 2 9 1 5 1013.5 1012.3 0.0
11/04:30am 21.2 22.4 16.0 72 3.2 E 4 7 2 4 1013.3 1012.1 0.0
11/04:00am 22.9 23.5 16.9 69 3.7 ESE 9 13 5 7 1013.2 1012.0 0.0
11/03:30am 23.5 24.1 16.8 66 4.1 ESE 9 15 5 8 1013.3 1012.1 0.0
11/03:00am 24.5 24.8 17.0 63 4.7 ESE 11 15 6 8 1013.1 1011.9 0.0
11/02:30am 25.1 25.8 17.1 61 5.0 SE 9 15 5 8 1012.9 1011.7 0.0
11/02:00am 25.3 26.0 17.0 60 5.2 E 9 13 5 7 1013.0 1011.8 0.0
11/01:30am 27.0 27.0 17.2 55 6.2 SE 13 19 7 10 1013.1 1011.9 0.0
11/01:00am 28.0 27.6 17.2 52 6.8 SE 15 22 8 12 1013.0 1011.8 0.0
11/12:30am 27.8 27.9 15.5 47 7.6 SSE 9 15 5 8 1013.2 1012.0 0.0
11/12:00am 26.4 23.4 7.9 31 10.0 SW 13 13 7 7 1013.3 1012.1 0.0
 
Date/Time
WST
Temp
°C
App
Temp
°C
Dew
Point
Rel
Hum
%
Delta-T
°C
Wind Press
QNH
hPa
Press
MSL
hPa
Rain
since 9 am
mm
Dir
 
Spd
km/h
Gust
km/h
Spd
kts
Gust
kts
10/11:30pm 26.9 25.0 6.9 28 10.7 WSW 6 7 3 4 1013.5 1012.3 0.0
10/11:00pm 26.8 25.0 7.3 29 10.5 N 6 11 3 6 1013.7 1012.5 0.0
10/10:30pm 27.8 24.9 6.6 26 11.3 W 11 13 6 7 1013.6 1012.4 0.0
10/10:00pm 29.9 28.6 5.9 22 12.8 NW 2 7 1 4 1013.8 1012.6 0.0
10/09:30pm 31.3 28.4 6.4 21 13.5 WSW 11 13 6 7 1013.8 1012.6 0.0
10/09:00pm 31.6 29.0 5.9 20 13.8 NW 9 13 5 7 1013.7 1012.5 0.0

Other Formats:

Comma delimited format used in spreadsheet applications
http://www.bom.gov.au/fwo/IDW60801/IDW60801.95625.axf

JavaScript Object Notation format (JSON) in row-major order
http://www.bom.gov.au/fwo/IDW60801/IDW60801.95625.json